Time;durP1;ratioP1;P1;durP2;ratioP2;P2;SDS_P1;SDS_P2;PMS_P1;PMS_P2;Temp;Humidity;BMP_temperature;BMP_pressure;BME280_temperature;BME280_humidity;BME280_pressure;Samples;Min_cycle;Max_cycle;Signal;HPM_P1;HPM_P2
2023/01/27 00:02:07;;;;;;;15.63;8.07;;;;;;;-1.97;100.00;101337.94;5051998;28;20220;-74
2023/01/27 00:04:33;;;;;;;16.13;8.40;;;;;;;-1.98;100.00;101337.88;5053149;28;20722;-74
2023/01/27 00:06:59;;;;;;;17.17;7.93;;;;;;;-1.99;100.00;101336.13;5032842;28;20571;-74
2023/01/27 00:09:26;;;;;;;19.37;7.83;;;;;;;-2.02;100.00;101336.88;5049493;28;20690;-74
2023/01/27 00:14:37;;;;;;;17.37;8.63;;;;;;;-2.05;100.00;101339.31;5048035;28;20487;-75
2023/01/27 00:17:04;;;;;;;18.33;8.10;;;;;;;-2.05;100.00;101331.66;5051775;28;20682;-74
2023/01/27 00:19:30;;;;;;;17.33;8.73;;;;;;;-2.06;100.00;101329.91;5049205;28;20677;-74
2023/01/27 00:24:41;;;;;;;20.07;9.17;;;;;;;-2.02;100.00;101329.22;5051788;28;20681;-74
2023/01/27 00:27:09;;;;;;;16.93;8.20;;;;;;;-2.06;100.00;101329.03;5044840;28;20206;-74
2023/01/27 00:29:40;;;;;;;14.90;8.30;;;;;;;-2.07;100.00;101333.28;5053321;28;20658;-74
2023/01/27 00:34:50;;;;;;;18.40;9.17;;;;;;;-2.09;100.00;101329.81;5049614;28;20215;-75
2023/01/27 00:37:17;;;;;;;18.80;10.10;;;;;;;-2.09;100.00;101329.81;5055750;28;20540;-74
2023/01/27 00:39:43;;;;;;;17.17;8.63;;;;;;;-2.10;100.00;101330.63;5049802;28;20564;-74
2023/01/27 00:42:11;;;;;;;18.90;9.27;;;;;;;-2.15;100.00;101327.88;5040952;28;20210;-74
2023/01/27 00:44:37;;;;;;;15.70;8.47;;;;;;;-2.12;100.00;101328.00;5048112;28;20219;-75
2023/01/27 00:47:05;;;;;;;17.27;8.43;;;;;;;-2.12;100.00;101333.13;5050136;28;20215;-74
2023/01/27 00:49:32;;;;;;;18.07;9.00;;;;;;;-2.14;100.00;101324.53;5044108;28;20668;-74
2023/01/27 00:51:58;;;;;;;15.83;8.20;;;;;;;-2.15;100.00;101327.88;5047562;28;20203;-74
2023/01/27 00:54:24;;;;;;;15.37;7.80;;;;;;;-2.14;100.00;101324.53;5028378;28;20253;-74
2023/01/27 00:56:51;;;;;;;16.60;8.47;;;;;;;-2.16;100.00;101331.28;5035337;28;20688;-74
2023/01/27 00:59:17;;;;;;;14.77;8.07;;;;;;;-2.15;100.00;101330.44;5055524;28;20723;-74
2023/01/27 01:01:45;;;;;;;15.47;9.37;;;;;;;-2.15;100.00;101337.25;5048243;28;20226;-74
2023/01/27 01:04:13;;;;;;;16.10;8.83;;;;;;;-2.16;100.00;101332.97;5029531;28;20231;-74
2023/01/27 01:06:39;;;;;;;14.83;8.10;;;;;;;-2.19;100.00;101335.41;5025691;28;20737;-74
2023/01/27 01:09:05;;;;;;;17.63;8.27;;;;;;;-2.21;100.00;101337.03;5026752;28;20221;-74
2023/01/27 01:11:32;;;;;;;14.57;8.13;;;;;;;-2.15;100.00;101338.09;5050375;28;20444;-74
2023/01/27 01:13:58;;;;;;;17.60;8.17;;;;;;;-2.21;100.00;101337.03;5028866;28;20232;-74
2023/01/27 01:16:25;;;;;;;18.00;8.70;;;;;;;-2.17;100.00;101338.88;5030193;28;20219;-74
2023/01/27 01:18:52;;;;;;;16.80;8.67;;;;;;;-2.20;100.00;101333.63;5047777;28;20199;-75
2023/01/27 01:21:21;;;;;;;17.10;8.90;;;;;;;-2.19;100.00;101331.16;5039814;28;20687;-74
2023/01/27 01:23:47;;;;;;;14.57;8.93;;;;;;;-2.20;100.00;101339.66;5044983;28;20217;-75
2023/01/27 01:26:16;;;;;;;15.40;8.80;;;;;;;-2.24;100.00;101335.22;5048842;28;20188;-74
2023/01/27 01:28:44;;;;;;;16.07;8.53;;;;;;;-2.25;100.00;101345.38;5040378;28;20314;-74
2023/01/27 01:31:12;;;;;;;16.63;9.17;;;;;;;-2.26;100.00;101343.66;5030565;28;20195;-74
2023/01/27 01:33:39;;;;;;;15.33;8.53;;;;;;;-2.27;100.00;101340.19;5033340;28;20257;-75
2023/01/27 01:36:07;;;;;;;15.73;8.03;;;;;;;-2.24;100.00;101344.56;5046055;28;20285;-74
2023/01/27 01:38:37;;;;;;;17.07;8.07;;;;;;;-2.27;100.00;101350.41;5034905;28;20804;-75
2023/01/27 01:41:04;;;;;;;17.77;8.80;;;;;;;-2.27;100.00;101347.88;5041143;28;20679;-75
2023/01/27 01:43:30;;;;;;;14.80;8.07;;;;;;;-2.29;100.00;101345.28;5044164;28;20647;-74
2023/01/27 01:45:58;;;;;;;17.67;7.40;;;;;;;-2.25;100.00;101341.16;5031416;28;20203;-74
2023/01/27 01:48:32;;;;;;;15.40;8.53;;;;;;;-2.26;100.00;101341.09;5047094;28;20583;-74
2023/01/27 01:51:01;;;;;;;16.20;7.63;;;;;;;-2.29;100.00;101346.94;5029628;28;20686;-74
2023/01/27 01:53:32;;;;;;;18.50;9.13;;;;;;;-2.27;100.00;101342.75;5048274;28;20203;-74
2023/01/27 01:56:06;;;;;;;17.13;8.70;;;;;;;-2.22;100.00;101335.28;5046693;28;20539;-74
2023/01/27 01:58:34;;;;;;;17.57;8.50;;;;;;;-2.19;100.00;101343.91;5052644;28;20238;-74
2023/01/27 02:01:03;;;;;;;20.27;8.43;;;;;;;-2.21;100.00;101350.66;5028463;28;20232;-74
2023/01/27 02:03:30;;;;;;;13.80;8.03;;;;;;;-2.21;100.00;101348.13;5044135;28;20203;-74
2023/01/27 02:05:56;;;;;;;15.00;8.20;;;;;;;-2.21;100.00;101353.22;5054582;28;20196;-74
2023/01/27 02:08:29;;;;;;;14.47;7.40;;;;;;;-2.22;100.00;101355.72;5049064;28;20206;-74
2023/01/27 02:10:56;;;;;;;14.57;7.50;;;;;;;-2.23;100.00;101356.50;5048823;28;20231;-74
2023/01/27 02:13:24;;;;;;;15.13;7.93;;;;;;;-2.21;100.00;101355.78;5034207;28;20199;-74
2023/01/27 02:15:54;;;;;;;16.87;8.27;;;;;;;-2.26;100.00;101356.44;5055102;28;20212;-74
2023/01/27 02:18:21;;;;;;;19.00;9.03;;;;;;;-2.26;100.00;101347.06;5047852;28;20203;-74
2023/01/27 02:20:50;;;;;;;16.60;7.97;;;;;;;-2.23;100.00;101351.41;5036957;28;20680;-74
2023/01/27 02:23:27;;;;;;;16.93;8.40;;;;;;;-2.24;100.00;101347.13;5042182;28;20203;-74
2023/01/27 02:26:00;;;;;;;13.00;7.70;;;;;;;-2.21;100.00;101345.56;5040965;28;20197;-74
2023/01/27 02:28:28;;;;;;;15.80;8.50;;;;;;;-2.20;100.00;101342.19;5051647;28;20199;-74
2023/01/27 02:30:55;;;;;;;16.60;8.17;;;;;;;-2.20;100.00;101342.19;5047981;28;20195;-75
2023/01/27 02:33:23;;;;;;;14.47;7.70;;;;;;;-2.20;100.00;101343.88;5046493;28;20199;-74
2023/01/27 02:35:58;;;;;;;15.83;7.53;;;;;;;-2.23;100.00;101349.75;5046675;28;20223;-75
2023/01/27 02:38:29;;;;;;;15.83;8.53;;;;;;;-2.20;100.00;101351.53;5024528;28;20234;-75
2023/01/27 02:41:01;;;;;;;13.63;7.77;;;;;;;-2.22;100.00;101355.72;5049969;28;20290;-74
2023/01/27 02:43:28;;;;;;;14.33;7.23;;;;;;;-2.25;100.00;101358.16;5044656;28;20330;-74
2023/01/27 02:45:56;;;;;;;11.33;7.00;;;;;;;-2.24;100.00;101363.31;5044148;28;20202;-75
2023/01/27 02:48:23;;;;;;;10.47;6.60;;;;;;;-2.26;100.00;101354.72;5032669;28;20207;-74
2023/01/27 02:50:50;;;;;;;14.07;7.47;;;;;;;-2.24;100.00;101357.34;5043832;28;20211;-74
2023/01/27 02:53:16;;;;;;;14.20;7.70;;;;;;;-2.25;100.00;101361.59;5027823;28;20237;-74
2023/01/27 02:55:43;;;;;;;12.80;7.23;;;;;;;-2.27;100.00;101363.19;5029816;28;20226;-75
2023/01/27 02:58:10;;;;;;;10.90;5.90;;;;;;;-2.25;100.00;101364.16;5041107;28;20692;-74
2023/01/27 03:00:47;;;;;;;13.37;7.33;;;;;;;-2.27;100.00;101360.63;5050955;28;20401;-74
2023/01/27 03:03:14;;;;;;;12.67;6.87;;;;;;;-2.24;100.00;101362.47;5030908;28;20575;-74
2023/01/27 03:05:41;;;;;;;13.17;6.73;;;;;;;-2.26;100.00;101370.06;5026679;28;20231;-75
2023/01/27 03:08:08;;;;;;;12.53;6.70;;;;;;;-2.24;100.00;101370.97;5045068;28;20202;-74
2023/01/27 03:10:35;;;;;;;10.77;5.87;;;;;;;-2.23;100.00;101377.84;5046515;28;20575;-75
2023/01/27 03:13:04;;;;;;;13.00;6.03;;;;;;;-2.23;100.00;101375.28;5044927;28;20195;-75
2023/01/27 03:18:16;;;;;;;13.97;7.10;;;;;;;-2.23;100.00;101374.41;5057122;28;20191;-75
2023/01/27 03:20:45;;;;;;;11.40;6.63;;;;;;;-2.21;100.00;101373.66;5038033;28;20195;-75
2023/01/27 03:23:14;;;;;;;10.53;5.90;;;;;;;-2.18;100.00;101378.91;5045312;28;20195;-74
2023/01/27 03:25:42;;;;;;;10.00;6.13;;;;;;;-2.18;100.00;101383.09;5053837;28;20223;-74
2023/01/27 03:28:08;;;;;;;11.97;6.03;;;;;;;-2.17;100.00;101384.88;5039277;28;20544;-74
2023/01/27 03:30:42;;;;;;;13.50;7.67;;;;;;;-2.15;100.00;101390.91;5050802;28;20247;-74
2023/01/27 03:33:19;;;;;;;11.57;6.80;;;;;;;-2.18;100.00;101396.78;5050424;28;20293;-75
2023/01/27 03:47:06;;;;;;;12.37;6.77;;;;;;;-2.16;100.00;101392.59;5056236;28;20219;-75
2023/01/27 03:49:32;;;;;;;12.97;6.67;;;;;;;-2.17;100.00;101390.84;5052222;28;20373;-75
2023/01/27 03:51:59;;;;;;;14.40;7.23;;;;;;;-2.17;100.00;101393.41;5045754;28;20225;-75
2023/01/27 03:54:25;;;;;;;12.27;6.73;;;;;;;-2.16;100.00;101387.47;5039468;28;20308;-75
2023/01/27 03:56:51;;;;;;;14.17;7.50;;;;;;;-2.20;100.00;101387.28;5050936;28;20218;-74
2023/01/27 03:59:18;;;;;;;12.70;7.00;;;;;;;-2.20;100.00;101375.41;5033230;28;20207;-74
2023/01/27 04:01:45;;;;;;;15.50;7.53;;;;;;;-2.18;100.00;101384.00;5052446;28;20218;-74
2023/01/27 04:06:59;;;;;;;14.70;7.30;;;;;;;-2.13;100.00;101386.72;5052314;28;20188;-75
2023/01/27 04:09:27;;;;;;;12.13;7.63;;;;;;;-2.15;100.00;101384.09;5051973;28;20239;-75
2023/01/27 04:11:54;;;;;;;14.93;7.47;;;;;;;-2.16;100.00;101384.06;5054469;28;20200;-75
2023/01/27 04:14:21;;;;;;;14.70;7.90;;;;;;;-2.15;100.00;101373.88;5052748;28;20223;-75
2023/01/27 04:16:47;;;;;;;11.90;7.33;;;;;;;-2.10;100.00;101381.72;5051413;28;20672;-75
2023/01/27 04:19:15;;;;;;;16.17;7.47;;;;;;;-2.07;100.00;101381.84;5059748;28;20202;-75
2023/01/27 04:21:42;;;;;;;16.37;7.20;;;;;;;-2.11;100.00;101378.31;5034819;28;20253;-74
2023/01/27 04:24:15;;;;;;;13.53;7.03;;;;;;;-2.13;100.00;101385.06;5044782;28;20579;-74
2023/01/27 04:26:42;;;;;;;14.63;7.50;;;;;;;-2.15;100.00;101373.88;5045259;28;20278;-74
2023/01/27 04:29:09;;;;;;;14.13;7.80;;;;;;;-2.16;100.00;101379.81;5053188;28;20203;-74
2023/01/27 04:31:35;;;;;;;20.50;9.43;;;;;;;-2.15;100.00;101378.97;5045218;28;20204;-74
2023/01/27 04:34:01;;;;;;;15.67;7.87;;;;;;;-2.15;100.00;101378.97;5030022;28;20581;-74
2023/01/27 04:36:30;;;;;;;15.23;7.43;;;;;;;-2.13;100.00;101379.06;5046367;28;20530;-74
2023/01/27 04:38:56;;;;;;;14.80;7.43;;;;;;;-2.13;100.00;101379.94;5035398;28;20261;-74
2023/01/27 04:41:23;;;;;;;16.70;8.33;;;;;;;-2.15;100.00;101385.78;5049663;28;20199;-75
2023/01/27 04:43:49;;;;;;;13.50;7.73;;;;;;;-2.15;100.00;101396.00;5050763;28;20595;-75
2023/01/27 04:46:16;;;;;;;16.20;7.53;;;;;;;-2.12;100.00;101396.13;5049586;28;20602;-75
2023/01/27 04:48:42;;;;;;;15.43;8.23;;;;;;;-2.10;100.00;101395.38;5049181;28;20230;-75
2023/01/27 04:51:08;;;;;;;16.43;7.70;;;;;;;-2.11;100.00;101390.19;5050496;28;20203;-75
2023/01/27 04:53:36;;;;;;;18.53;8.80;;;;;;;-2.14;100.00;101392.66;5050264;28;20196;-74
2023/01/27 04:56:07;;;;;;;18.03;8.20;;;;;;;-2.15;100.00;101399.44;5056579;28;20617;-74
2023/01/27 04:58:33;;;;;;;18.90;9.47;;;;;;;-2.16;100.00;101401.94;5043394;28;20207;-74
2023/01/27 05:01:00;;;;;;;18.93;9.77;;;;;;;-2.17;100.00;101401.06;5044786;28;20195;-75
2023/01/27 05:03:26;;;;;;;18.40;9.00;;;;;;;-2.15;100.00;101404.53;5048200;28;20203;-74
2023/01/27 05:05:53;;;;;;;15.97;8.87;;;;;;;-2.14;100.00;101405.44;5053857;28;20238;-74
2023/01/27 05:08:19;;;;;;;17.20;8.70;;;;;;;-2.20;100.00;101405.19;5046184;28;20204;-75
2023/01/27 05:10:47;;;;;;;16.63;8.70;;;;;;;-2.20;100.00;101403.53;5047103;28;20192;-75
2023/01/27 05:13:14;;;;;;;22.00;9.97;;;;;;;-2.15;100.00;101399.44;5034236;28;20569;-74
2023/01/27 05:15:40;;;;;;;22.73;10.20;;;;;;;-2.16;100.00;101405.38;5046812;28;20211;-74
2023/01/27 05:18:06;;;;;;;22.70;11.13;;;;;;;-2.18;100.00;101403.56;5053327;28;20208;-74
2023/01/27 05:20:33;;;;;;;21.27;9.57;;;;;;;-2.16;100.00;101404.50;5046037;28;20196;-75
2023/01/27 05:25:45;;;;;;;18.83;9.07;;;;;;;-2.18;100.00;101422.34;5045605;28;20230;-74
2023/01/27 05:28:13;;;;;;;20.77;10.27;;;;;;;-2.15;100.00;101422.44;5051182;28;20647;-74
2023/01/27 05:30:40;;;;;;;21.80;10.67;;;;;;;-2.14;100.00;101420.75;5044790;28;20554;-74
2023/01/27 05:33:09;;;;;;;21.67;10.53;;;;;;;-2.16;100.00;101423.25;5048049;28;20571;-74
2023/01/27 05:35:36;;;;;;;22.00;10.53;;;;;;;-2.17;100.00;101426.63;5047102;28;20552;-74
2023/01/27 05:38:02;;;;;;;17.27;9.53;;;;;;;-2.18;100.00;101427.44;5048583;28;20215;-74
2023/01/27 05:40:29;;;;;;;20.23;9.93;;;;;;;-2.16;100.00;101435.16;5045495;28;20309;-75
2023/01/27 05:42:56;;;;;;;19.00;10.20;;;;;;;-2.14;100.00;101431.00;5048687;28;20195;-74
2023/01/27 05:45:23;;;;;;;21.53;10.17;;;;;;;-2.14;100.00;101431.84;5049724;28;20227;-74
2023/01/27 05:47:51;;;;;;;20.37;9.83;;;;;;;-2.12;100.00;101431.91;5047521;28;20647;-74
2023/01/27 05:50:18;;;;;;;19.27;10.23;;;;;;;-2.16;100.00;101440.28;5049392;28;20195;-74
2023/01/27 05:52:45;;;;;;;19.80;10.03;;;;;;;-2.13;100.00;101437.81;5052548;28;20195;-74
2023/01/27 05:55:11;;;;;;;20.57;10.27;;;;;;;-2.13;100.00;101440.38;5042599;28;20236;-74
2023/01/27 05:57:37;;;;;;;21.03;11.00;;;;;;;-2.15;100.00;101435.19;5044571;28;20214;-74
2023/01/27 06:00:05;;;;;;;21.80;11.17;;;;;;;-2.12;100.00;101422.56;5050501;28;20206;-74
2023/01/27 06:02:35;;;;;;;19.47;9.70;;;;;;;-2.12;100.00;101429.34;5042559;28;20202;-74
2023/01/27 06:05:02;;;;;;;19.50;10.37;;;;;;;-2.11;100.00;101426.88;5042375;28;20234;-74
2023/01/27 06:07:29;;;;;;;21.50;11.23;;;;;;;-2.13;100.00;101430.16;5028586;28;20298;-74
2023/01/27 06:09:55;;;;;;;23.10;11.70;;;;;;;-2.12;100.00;101437.88;5042001;28;20195;-74
2023/01/27 06:12:22;;;;;;;19.20;10.23;;;;;;;-2.13;100.00;101445.50;5024984;28;20552;-74
2023/01/27 06:14:48;;;;;;;23.57;11.40;;;;;;;-2.15;100.00;101442.88;5045005;28;20230;-75
2023/01/27 06:17:14;;;;;;;18.83;10.67;;;;;;;-2.15;100.00;101447.97;5049051;28;20553;-75
2023/01/27 06:19:42;;;;;;;22.20;11.23;;;;;;;-2.16;100.00;101441.13;5046748;28;20195;-74
2023/01/27 06:22:08;;;;;;;18.40;10.33;;;;;;;-2.14;100.00;101446.31;5048921;28;20211;-74
2023/01/27 06:24:35;;;;;;;22.43;11.03;;;;;;;-2.10;100.00;101453.28;5048399;28;20333;-75
2023/01/27 06:27:02;;;;;;;22.53;11.03;;;;;;;-2.10;100.00;101448.16;5041945;28;20201;-74
2023/01/27 06:29:30;;;;;;;21.30;10.10;;;;;;;-2.12;100.00;101454.91;5047093;28;20559;-74
2023/01/27 06:31:57;;;;;;;22.87;11.43;;;;;;;-2.11;100.00;101451.53;5047041;28;20206;-75
2023/01/27 06:34:24;;;;;;;24.90;10.67;;;;;;;-2.15;100.00;101455.66;5042262;28;20249;-74
2023/01/27 06:36:54;;;;;;;23.23;12.17;;;;;;;-2.12;100.00;101458.31;5047198;28;20211;-75
2023/01/27 06:39:20;;;;;;;23.83;12.70;;;;;;;-2.10;100.00;101460.94;5048990;28;20238;-75
2023/01/27 06:41:49;;;;;;;22.27;11.73;;;;;;;-2.14;100.00;101457.41;5043419;28;20207;-75
2023/01/27 06:44:16;;;;;;;19.10;11.40;;;;;;;-2.14;100.00;101459.97;5036629;28;20219;-74
2023/01/27 06:46:44;;;;;;;23.37;11.53;;;;;;;-2.13;100.00;101459.16;5040967;28;20195;-75
2023/01/27 06:49:11;;;;;;;24.70;11.67;;;;;;;-2.14;100.00;101454.84;5050122;28;20200;-75
2023/01/27 06:51:37;;;;;;;20.23;10.87;;;;;;;-2.13;100.00;101463.38;5027362;28;20204;-75
2023/01/27 06:54:05;;;;;;;20.23;10.30;;;;;;;-2.12;100.00;101468.53;5047188;28;20222;-75
2023/01/27 06:56:32;;;;;;;21.97;10.90;;;;;;;-2.14;100.00;101461.66;5049880;28;20199;-75
2023/01/27 06:58:58;;;;;;;25.57;11.37;;;;;;;-2.15;100.00;101473.53;5048512;28;20227;-75
2023/01/27 07:01:25;;;;;;;20.40;10.70;;;;;;;-2.15;100.00;101465.00;5022061;28;20207;-74
2023/01/27 07:03:51;;;;;;;23.63;11.57;;;;;;;-2.15;100.00;101467.56;5030603;28;20223;-75
2023/01/27 07:06:19;;;;;;;24.40;11.77;;;;;;;-2.14;100.00;101469.31;5051878;28;20199;-75
2023/01/27 07:08:46;;;;;;;31.33;12.00;;;;;;;-2.16;100.00;101468.38;5051271;28;20195;-75
2023/01/27 07:11:14;;;;;;;26.40;11.73;;;;;;;-2.18;100.00;101472.53;5047038;28;20199;-75
2023/01/27 07:13:40;;;;;;;23.60;11.63;;;;;;;-2.16;100.00;101470.94;5048552;28;20202;-75
2023/01/27 07:16:07;;;;;;;23.33;12.03;;;;;;;-2.16;100.00;101482.03;5029701;28;20225;-75
2023/01/27 07:18:34;;;;;;;27.80;11.97;;;;;;;-2.17;100.00;101481.97;5046224;28;20595;-74
2023/01/27 07:21:00;;;;;;;22.60;10.73;;;;;;;-2.15;100.00;101478.66;5042366;28;20577;-75
2023/01/27 07:23:26;;;;;;;25.07;12.13;;;;;;;-2.13;100.00;101482.16;5046726;28;20278;-75
2023/01/27 07:25:53;;;;;;;21.93;11.40;;;;;;;-2.13;100.00;101488.94;5049782;28;20636;-75
2023/01/27 07:28:21;;;;;;;25.23;11.50;;;;;;;-2.13;100.00;101482.16;5050971;28;20226;-75
2023/01/27 07:30:47;;;;;;;30.70;12.70;;;;;;;-2.09;100.00;101480.59;5046200;28;20249;-75
2023/01/27 07:33:14;;;;;;;24.73;10.60;;;;;;;-2.08;100.00;101479.75;5034285;28;20207;-75
2023/01/27 07:35:41;;;;;;;24.40;11.67;;;;;;;-2.06;100.00;101477.28;5027102;28;20247;-75
2023/01/27 07:38:08;;;;;;;25.37;11.63;;;;;;;-2.02;100.00;101480.00;5041278;28;20215;-75
2023/01/27 07:40:35;;;;;;;27.60;11.90;;;;;;;-1.98;100.00;101483.56;5044420;28;20199;-74
2023/01/27 07:43:02;;;;;;;28.60;12.83;;;;;;;-1.97;100.00;101483.63;5041940;28;20195;-75
2023/01/27 07:45:30;;;;;;;28.67;12.20;;;;;;;-1.99;100.00;101486.91;5030236;28;20232;-74
2023/01/27 07:48:00;;;;;;;38.20;14.10;;;;;;;-2.01;100.00;101496.22;5047686;28;20544;-75
2023/01/27 07:50:27;;;;;;;31.77;14.00;;;;;;;-2.01;100.00;101494.53;5030564;28;20207;-74
2023/01/27 07:52:54;;;;;;;26.33;13.50;;;;;;;-2.00;100.00;101501.38;5048483;28;20199;-75
2023/01/27 07:55:20;;;;;;;35.00;13.47;;;;;;;-1.97;100.00;101503.19;5053447;28;20513;-75
2023/01/27 07:57:46;;;;;;;29.17;12.83;;;;;;;-1.96;100.00;101499.81;5051590;28;20217;-75
2023/01/27 08:00:15;;;;;;;28.60;12.47;;;;;;;-2.00;100.00;101497.97;5048122;28;20206;-74
2023/01/27 08:02:43;;;;;;;26.37;12.83;;;;;;;-1.99;100.00;101500.56;5045631;28;20195;-75
2023/01/27 08:05:10;;;;;;;27.70;12.33;;;;;;;-1.97;100.00;101498.06;5038941;28;20841;-74
2023/01/27 08:07:36;;;;;;;29.27;13.20;;;;;;;-1.99;100.00;101502.25;5049797;28;20533;-74
2023/01/27 08:10:02;;;;;;;33.20;12.57;;;;;;;-1.97;100.00;101509.19;5032426;28;20559;-75
2023/01/27 08:12:29;;;;;;;29.67;13.30;;;;;;;-1.95;100.00;101510.13;5033409;28;20200;-75
2023/01/27 08:14:55;;;;;;;31.60;14.33;;;;;;;-1.93;100.00;101507.63;5051307;28;20223;-74
2023/01/27 08:17:21;;;;;;;32.30;12.93;;;;;;;-1.89;100.00;101509.47;5055571;28;20227;-75
2023/01/27 08:19:50;;;;;;;34.87;13.80;;;;;;;-1.82;100.00;101516.56;5053852;28;20549;-75
2023/01/27 08:22:20;;;;;;;31.60;13.27;;;;;;;-1.78;100.00;101513.28;5040807;28;20195;-75
2023/01/27 08:24:47;;;;;;;35.23;14.60;;;;;;;-1.76;100.00;101511.69;5043326;28;20587;-75
2023/01/27 08:27:13;;;;;;;29.93;12.67;;;;;;;-1.75;100.00;101513.44;5048640;28;20199;-75
2023/01/27 08:29:40;;;;;;;28.00;12.43;;;;;;;-1.75;100.00;101520.22;5050501;28;20553;-75
2023/01/27 08:32:06;;;;;;;22.17;10.13;;;;;;;-1.68;100.00;101517.09;5050985;28;20214;-75
2023/01/27 08:34:33;;;;;;;24.73;11.20;;;;;;;-1.66;100.00;101519.72;5030470;28;20231;-75
2023/01/27 08:37:00;;;;;;;22.33;12.03;;;;;;;-1.64;100.00;101528.31;5048764;28;20233;-74
2023/01/27 08:39:28;;;;;;;30.63;11.53;;;;;;;-1.59;100.00;101521.69;5047062;28;20210;-75
2023/01/27 08:41:54;;;;;;;26.33;11.63;;;;;;;-1.52;100.00;101521.97;5036930;28;20214;-75
2023/01/27 08:44:21;;;;;;;31.70;12.33;;;;;;;-1.51;100.00;101520.31;5025946;28;20311;-73
2023/01/27 08:46:48;;;;;;;19.33;9.73;;;;;;;-1.44;100.00;101519.72;5047866;28;20494;-75
2023/01/27 08:49:14;;;;;;;28.27;11.83;;;;;;;-1.43;100.00;101525.69;5046697;28;20283;-75
2023/01/27 08:51:41;;;;;;;27.10;10.57;;;;;;;-1.41;100.00;101519.81;5047308;28;20489;-75
2023/01/27 08:54:09;;;;;;;21.40;9.60;;;;;;;-1.37;100.00;101526.78;5050168;28;20294;-75
2023/01/27 08:56:36;;;;;;;23.27;9.43;;;;;;;-1.36;100.00;101530.22;5053370;28;20195;-75
2023/01/27 08:59:02;;;;;;;20.03;10.13;;;;;;;-1.36;100.00;101536.19;5044165;28;20222;-75
2023/01/27 09:01:29;;;;;;;24.33;9.77;;;;;;;-1.38;100.00;101530.16;5040165;28;20208;-75
2023/01/27 09:03:55;;;;;;;20.10;9.20;;;;;;;-1.37;100.00;101533.59;5049241;28;20219;-75
2023/01/27 09:06:21;;;;;;;20.13;8.67;;;;;;;-1.34;100.00;101541.38;5044722;28;20200;-75
2023/01/27 09:09:07;;;;;;;20.73;9.80;;;;;;;-1.34;100.00;101537.16;5046080;28;20210;-75
2023/01/27 09:11:35;;;;;;;21.23;9.97;;;;;;;-1.27;100.00;101537.38;5032018;28;20226;-74
2023/01/27 09:14:02;;;;;;;16.53;9.17;;;;;;;-1.18;100.00;101545.38;5056040;28;20218;-75
2023/01/27 09:16:28;;;;;;;23.00;9.60;;;;;;;-1.18;100.00;101545.38;5050353;28;20286;-75
2023/01/27 09:18:56;;;;;;;21.87;9.10;;;;;;;-1.20;100.00;101544.44;5049703;28;20210;-75
2023/01/27 09:21:23;;;;;;;19.77;9.30;;;;;;;-1.19;100.00;101543.66;5046236;28;20203;-75
2023/01/27 09:23:49;;;;;;;21.83;9.63;;;;;;;-1.16;100.00;101544.63;5046621;28;21984;-75
2023/01/27 09:26:15;;;;;;;24.33;9.03;;;;;;;-1.10;100.00;101545.66;5031227;28;20190;-75
2023/01/27 09:28:43;;;;;;;18.80;8.07;;;;;;;-1.08;100.00;101547.44;5030397;28;20199;-75
2023/01/27 09:31:10;;;;;;;14.50;7.53;;;;;;;-1.06;100.00;101548.38;5041315;28;20195;-75
2023/01/27 09:33:37;;;;;;;16.13;7.87;;;;;;;-1.04;100.00;101539.09;5044144;28;20235;-75
2023/01/27 09:36:08;;;;;;;19.13;8.80;;;;;;;-1.02;100.00;101539.13;5036626;28;20564;-75
2023/01/27 09:38:40;;;;;;;13.57;6.40;;;;;;;-1.00;100.00;101545.19;5048713;28;20704;-75
2023/01/27 09:41:22;;;;;;;16.50;7.00;;;;;;;-0.94;100.00;101536.84;5044582;28;20203;-75
2023/01/27 09:44:11;;;;;;;13.57;6.93;;;;;;;-0.95;100.00;101538.50;5042939;28;20554;-75
2023/01/27 09:46:53;;;;;;;15.93;7.47;;;;;;;-0.86;100.00;101541.41;5046387;28;20191;-75
2023/01/27 09:49:39;;;;;;;16.13;6.93;;;;;;;-0.88;100.00;101544.72;5048823;28;20205;-75
2023/01/27 09:52:32;;;;;;;15.63;7.27;;;;;;;-0.85;100.00;101539.72;5049094;28;20195;-75
2023/01/27 09:55:09;;;;;;;18.57;7.53;;;;;;;-0.79;100.00;101534.84;5044465;28;20234;-75
2023/01/27 09:57:48;;;;;;;12.57;6.27;;;;;;;-0.74;100.00;101537.53;5048054;28;20197;-74
2023/01/27 10:00:32;;;;;;;14.90;7.10;;;;;;;-0.71;100.00;101542.78;5041694;28;20226;-75
2023/01/27 10:03:35;;;;;;;19.07;7.13;;;;;;;-0.74;100.00;101538.41;5048378;28;20198;-75
2023/01/27 10:06:38;;;;;;;13.80;7.23;;;;;;;-0.66;100.00;101542.09;5047893;28;20211;-75
2023/01/27 10:09:37;;;;;;;14.70;7.10;;;;;;;-0.68;100.00;101540.31;5019389;28;20257;-75
2023/01/27 10:12:16;;;;;;;17.90;6.40;;;;;;;-0.66;100.00;101536.97;5045452;28;20693;-75
2023/01/27 10:14:52;;;;;;;19.17;6.60;;;;;;;-0.61;100.00;101539.72;5044445;28;20516;-75
2023/01/27 10:17:31;;;;;;;12.73;6.23;;;;;;;-0.54;100.00;101539.09;5045478;28;20210;-75
2023/01/27 10:20:18;;;;;;;14.13;6.10;;;;;;;-0.54;100.00;101539.09;5046289;28;20274;-75
2023/01/27 10:22:53;;;;;;;11.73;6.10;;;;;;;-0.48;100.00;101538.44;5039261;28;20202;-75
2023/01/27 10:25:31;;;;;;;13.63;7.00;;;;;;;-0.49;100.00;101540.13;5052539;28;20218;-75
2023/01/27 10:28:07;;;;;;;14.17;6.20;;;;;;;-0.54;100.00;101538.22;5046837;28;20202;-75
2023/01/27 10:30:35;;;;;;;11.30;4.93;;;;;;;-0.58;100.00;101538.13;5042055;28;20206;-75
2023/01/27 10:33:16;;;;;;;9.70;4.97;;;;;;;-0.52;100.00;101534.88;5045835;28;20680;-75
2023/01/27 10:35:51;;;;;;;6.87;3.80;;;;;;;-0.52;100.00;101527.19;5038326;28;20227;-74
2023/01/27 10:38:30;;;;;;;10.83;5.00;;;;;;;-0.44;100.00;101530.00;5041355;28;20203;-75
2023/01/27 10:41:04;;;;;;;8.67;4.33;;;;;;;-0.33;100.00;101517.56;5035514;28;20228;-75
2023/01/27 10:43:41;;;;;;;10.93;4.83;;;;;;;-0.27;100.00;101522.88;5038325;28;20194;-75
2023/01/27 10:46:16;;;;;;;10.57;4.90;;;;;;;-0.27;100.00;101522.88;5047031;28;20187;-75
2023/01/27 10:48:49;;;;;;;12.13;6.33;;;;;;;-0.34;100.00;101533.75;5039511;28;20192;-75
2023/01/27 10:51:22;;;;;;;8.77;4.20;;;;;;;-0.38;100.00;101546.47;5032273;28;20206;-75
2023/01/27 10:53:56;;;;;;;10.40;4.80;;;;;;;-0.38;100.00;101549.03;5040589;28;20202;-75
2023/01/27 10:56:30;;;;;;;11.90;4.53;;;;;;;-0.48;100.00;101553.78;5044793;28;20206;-75
2023/01/27 10:59:04;;;;;;;8.40;4.70;;;;;;;-0.46;100.00;101552.16;5034937;28;20231;-75
2023/01/27 11:01:35;;;;;;;9.07;4.13;;;;;;;-0.46;100.00;101547.03;5037902;28;20198;-75
2023/01/27 11:04:10;;;;;;;9.13;4.23;;;;;;;-0.42;100.00;101546.34;5045643;28;20601;-75
2023/01/27 11:06:40;;;;;;;7.87;4.63;;;;;;;-0.38;100.00;101545.59;5036411;28;20221;-75
2023/01/27 11:09:23;;;;;;;9.13;4.33;;;;;;;-0.34;100.00;101542.31;5046382;28;20195;-75
2023/01/27 11:11:52;;;;;;;11.40;4.93;;;;;;;-0.31;100.00;101546.69;5034469;28;20579;-75
2023/01/27 11:14:25;;;;;;;7.83;4.23;;;;;;;-0.29;100.00;101545.03;5046545;28;20714;-75
2023/01/27 11:16:55;;;;;;;11.73;5.13;;;;;;;-0.28;100.00;101549.31;5041760;28;20278;-75
2023/01/27 11:19:42;;;;;;;12.33;5.47;;;;;;;-0.28;100.00;101536.50;5039938;28;20280;-75
2023/01/27 11:22:19;;;;;;;9.47;4.70;;;;;;;-0.26;100.00;101546.00;5043950;28;20285;-75
2023/01/27 11:24:50;;;;;;;7.50;4.37;;;;;;;-0.26;100.00;101548.56;5046748;28;20602;-75
2023/01/27 11:27:25;;;;;;;6.47;4.00;;;;;;;-0.19;100.00;101536.84;5047411;28;20214;-75
2023/01/27 11:29:57;;;;;;;8.10;4.30;;;;;;;-0.16;100.00;101549.72;5043887;28;20198;-75
2023/01/27 11:32:36;;;;;;;10.63;4.73;;;;;;;-0.16;100.00;101548.88;5049481;28;20202;-75
2023/01/27 11:35:06;;;;;;;9.13;4.43;;;;;;;-0.13;100.00;101544.72;5042950;28;20243;-75
2023/01/27 11:37:36;;;;;;;7.47;4.53;;;;;;;-0.16;100.00;101543.75;5049149;28;20207;-74
2023/01/27 11:40:06;;;;;;;9.80;4.93;;;;;;;-0.20;100.00;101538.50;5032344;28;20472;-75
2023/01/27 11:42:34;;;;;;;9.20;4.70;;;;;;;-0.20;100.00;101530.81;5053597;28;20198;-75
2023/01/27 11:45:02;;;;;;;8.10;4.37;;;;;;;-0.20;100.00;101540.19;5045233;28;20580;-75